createdAt,value
2023-04-01T00:00:41.041Z,99552.34
2023-04-01T00:03:44.311Z,99545.09
2023-04-01T00:06:48.530Z,99541.06
2023-04-01T00:09:51.820Z,99539.56
2023-04-01T00:12:54.769Z,99525.63
2023-04-01T00:15:59.976Z,99527.38
2023-04-01T00:19:03.416Z,99529.31
2023-04-01T00:22:07.270Z,99535.06
2023-04-01T00:25:10.664Z,99527.34
2023-04-01T00:28:13.843Z,99533.59
2023-04-01T00:31:16.756Z,99522.72
2023-04-01T00:34:19.622Z,99521.72
2023-04-01T00:37:22.532Z,99521.25
2023-04-01T00:40:30.007Z,99512.84
2023-04-01T00:43:33.356Z,99516.19
2023-04-01T00:46:36.750Z,99510.31
2023-04-01T00:49:43.829Z,99513.56
2023-04-01T00:52:47.535Z,99507.66
2023-04-01T00:56:13.104Z,99502.47
2023-04-01T00:59:25.943Z,99498.69
2023-04-01T01:02:29.108Z,99490.50
2023-04-01T01:05:49.437Z,99497.31
2023-04-01T01:08:52.966Z,99491.66
2023-04-01T01:12:00.972Z,99486.81
2023-04-01T01:15:24.478Z,99485.91
2023-04-01T01:18:48.418Z,99488.53
2023-04-01T01:22:03.368Z,99470.13
2023-04-01T01:25:28.187Z,99483.59
2023-04-01T01:28:37.418Z,99488.22
2023-04-01T01:32:17.746Z,99483.25
2023-04-01T01:35:39.349Z,99484.50
2023-04-01T01:38:52.269Z,99487.88
2023-04-01T01:41:58.628Z,99483.13
2023-04-01T01:45:03.784Z,99486.56
2023-04-01T01:48:10.250Z,99483.59
2023-04-01T01:51:13.200Z,99475.78
2023-04-01T01:54:18.800Z,99488.56
2023-04-01T01:57:26.734Z,99492.22
2023-04-01T02:00:36.465Z,99485.78
2023-04-01T02:03:40.884Z,99495.56
2023-04-01T02:06:49.241Z,99493.84
2023-04-01T02:09:52.965Z,99493.03
2023-04-01T02:13:02.586Z,99497.19
2023-04-01T02:16:13.509Z,99496.84
2023-04-01T02:19:23.803Z,99498.34
2023-04-01T02:22:32.595Z,99499.03
2023-04-01T02:25:37.782Z,99500.78
2023-04-01T02:28:43.616Z,99500.53
2023-04-01T02:31:47.230Z,99492.09
2023-04-01T02:34:50.860Z,99489.59
2023-04-01T02:37:55.500Z,99484.28
2023-04-01T02:41:01.997Z,99487.53
2023-04-01T02:44:05.046Z,99489.38
2023-04-01T02:47:07.828Z,99485.44
2023-04-01T02:50:11.234Z,99475.66
2023-04-01T02:53:14.175Z,99478.78
2023-04-01T02:56:16.971Z,99465.28
2023-04-01T02:59:20.098Z,99461.03
2023-04-01T03:02:23.063Z,99459.53
2023-04-01T03:05:26.231Z,99465.19
2023-04-01T03:08:29.343Z,99458.16
2023-04-01T03:11:32.174Z,99452.50
2023-04-01T03:14:35.202Z,99448.47
2023-04-01T03:17:39.535Z,99446.19
2023-04-01T03:20:42.290Z,99437.31
2023-04-01T03:23:45.490Z,99433.16
2023-04-01T03:26:48.390Z,99431.78
2023-04-01T03:29:51.804Z,99423.72
2023-04-01T03:32:54.656Z,99420.16
2023-04-01T03:35:57.470Z,99422.91
2023-04-01T03:39:00.366Z,99415.91
2023-04-01T03:42:11.679Z,99403.47
2023-04-01T03:45:14.815Z,99395.28
2023-04-01T03:48:18.208Z,99396.09
2023-04-01T03:51:21.237Z,99396.69
2023-04-01T03:54:24.561Z,99399.56
2023-04-01T03:57:27.605Z,99394.13
2023-04-01T04:00:34.501Z,99400.00
2023-04-01T04:03:38.537Z,99388.84
2023-04-01T04:06:41.611Z,99385.75
2023-04-01T04:09:44.578Z,99381.97
2023-04-01T04:12:47.721Z,99383.19
2023-04-01T04:15:51.516Z,99378.38
2023-04-01T04:18:54.960Z,99379.75
2023-04-01T04:21:57.780Z,99383.53
2023-04-01T04:25:00.884Z,99382.50
2023-04-01T04:28:03.851Z,99372.41
2023-04-01T04:31:07.521Z,99382.06
2023-04-01T04:34:11.793Z,99380.69
2023-04-01T04:37:14.749Z,99391.06
2023-04-01T04:40:17.722Z,99389.91
2023-04-01T04:43:21.032Z,99407.16
2023-04-01T04:46:24.838Z,99409.34
2023-04-01T04:49:33.998Z,99411.63
2023-04-01T04:52:41.968Z,99412.31
2023-04-01T04:55:50.052Z,99410.25
2023-04-01T04:59:08.326Z,99410.59
2023-04-01T05:02:34.568Z,99407.72
2023-04-01T05:05:38.285Z,99406.34
2023-04-01T05:08:42.304Z,99410.81
2023-04-01T05:11:45.310Z,99413.72
2023-04-01T05:14:48.154Z,99413.13
2023-04-01T05:17:51.566Z,99414.63
2023-04-01T05:20:55.736Z,99423.16
2023-04-01T05:23:58.979Z,99420.50
2023-04-01T05:27:02.718Z,99419.22
2023-04-01T05:30:06.990Z,99419.09
2023-04-01T05:33:18.880Z,99430.75
2023-04-01T05:36:21.738Z,99429.94
2023-04-01T05:39:24.768Z,99438.34
2023-04-01T05:42:27.702Z,99438.56
2023-04-01T05:45:31.319Z,99442.84
2023-04-01T05:48:54.522Z,99444.56
2023-04-01T05:51:58.514Z,99451.81
2023-04-01T05:55:01.857Z,99449.38
2023-04-01T05:58:05.045Z,99455.94
2023-04-01T06:01:15.828Z,99444.91
2023-04-01T06:04:21.093Z,99452.03
2023-04-01T06:07:23.975Z,99439.13
2023-04-01T06:10:44.844Z,99444.56
2023-04-01T06:14:01.716Z,99458.59
2023-04-01T06:17:26.229Z,99459.41
2023-04-01T06:20:32.194Z,99468.19
2023-04-01T06:23:51.067Z,99471.72
2023-04-01T06:27:09.297Z,99486.38
2023-04-01T06:30:34.447Z,99489.13
2023-04-01T06:33:43.657Z,99487.75
2023-04-01T06:36:55.646Z,99492.00
2023-04-01T06:40:07.596Z,99495.69
2023-04-01T06:43:30.777Z,99497.31
2023-04-01T06:47:03.662Z,99495.47
2023-04-01T06:50:42.547Z,99491.53
2023-04-01T06:54:19.232Z,99511.44
2023-04-01T06:57:48.736Z,99507.22
2023-04-01T07:01:00.011Z,99509.88
2023-04-01T07:04:11.478Z,99512.06
2023-04-01T07:07:39.117Z,99504.19
2023-04-01T07:10:54.725Z,99502.47
2023-04-01T07:14:45.928Z,99514.25
2023-04-01T07:17:54.802Z,99505.00
2023-04-01T07:20:58.753Z,99501.34
2023-04-01T07:24:07.958Z,99511.25
2023-04-01T07:27:26.708Z,99509.88
2023-04-01T07:30:44.196Z,99510.66
2023-04-01T07:34:08.359Z,99512.25
2023-04-01T07:37:46.778Z,99516.19
2023-04-01T07:41:06.132Z,99522.03
2023-04-01T07:44:28.495Z,99524.13
2023-04-01T07:48:02.378Z,99528.44
2023-04-01T07:51:14.978Z,99533.84
2023-04-01T07:54:46.478Z,99533.56
2023-04-01T07:58:01.472Z,99524.41
2023-04-01T08:01:12.096Z,99531.94
2023-04-01T08:04:50.266Z,99526.13
2023-04-01T08:08:14.563Z,99527.63
2023-04-01T08:11:59.320Z,99525.16
2023-04-01T08:15:28.425Z,99520.97
2023-04-01T08:18:51.057Z,99527.25
2023-04-01T08:21:58.794Z,99518.72
2023-04-01T08:25:05.344Z,99530.47
2023-04-01T08:28:08.205Z,99525.72
2023-04-01T08:31:17.356Z,99525.38
2023-04-01T08:34:37.674Z,99524.28
2023-04-01T08:37:42.426Z,99513.41
2023-04-01T08:40:53.900Z,99516.13
2023-04-01T08:44:23.035Z,99527.13
2023-04-01T08:47:33.789Z,99524.22
2023-04-01T08:50:56.015Z,99526.00
2023-04-01T08:54:24.172Z,99522.75
2023-04-01T08:57:52.084Z,99518.75
2023-04-01T09:01:34.113Z,99524.34
2023-04-01T09:04:49.589Z,99529.31
2023-04-01T09:08:01.450Z,99531.97
2023-04-01T09:11:22.762Z,99532.13
2023-04-01T09:14:56.056Z,99521.09
2023-04-01T09:18:37.607Z,99519.94
2023-04-01T09:21:52.333Z,99524.75
2023-04-01T09:25:29.853Z,99523.28
2023-04-01T09:28:43.888Z,99527.69
2023-04-01T09:31:58.895Z,99524.31
2023-04-01T09:35:24.629Z,99530.66
2023-04-01T09:38:38.859Z,99531.25
2023-04-01T09:41:54.723Z,99537.38
2023-04-01T09:45:46.675Z,99544.28
2023-04-01T09:49:05.327Z,99538.84
2023-04-01T09:52:49.686Z,99537.34
2023-04-01T09:56:40.624Z,99540.63
2023-04-01T10:00:11.891Z,99528.91
2023-04-01T10:03:42.628Z,99535.84
2023-04-01T10:06:59.762Z,99542.16
2023-04-01T10:10:15.641Z,99538.50
2023-04-01T10:13:31.440Z,99540.22
2023-04-01T10:17:02.396Z,99535.50
2023-04-01T10:20:29.687Z,99537.44
2023-04-01T10:23:49.342Z,99540.94
2023-04-01T10:27:19.368Z,99547.28
2023-04-01T10:31:04.500Z,99549.19
2023-04-01T10:34:49.976Z,99546.38
2023-04-01T10:38:10.131Z,99556.22
2023-04-01T10:41:54.466Z,99555.81
2023-04-01T10:45:52.825Z,99556.25
2023-04-01T10:49:33.869Z,99547.47
2023-04-01T10:53:02.313Z,99550.03
2023-04-01T10:56:51.661Z,99549.81
2023-04-01T11:00:40.213Z,99554.69
2023-04-01T11:04:39.389Z,99543.88
2023-04-01T11:08:38.577Z,99548.81
2023-04-01T11:12:08.245Z,99543.38
2023-04-01T11:15:42.324Z,99551.59
2023-04-01T11:18:49.656Z,99540.59
2023-04-01T11:21:55.516Z,99554.03
2023-04-01T11:25:34.476Z,99557.16
2023-04-01T11:29:21.435Z,99551.34
2023-04-01T11:32:49.340Z,99547.03
2023-04-01T11:36:07.806Z,99553.16
2023-04-01T11:39:31.482Z,99545.47
2023-04-01T11:43:19.916Z,99554.38
2023-04-01T11:47:31.426Z,99546.78
2023-04-01T11:51:00.500Z,99550.63
2023-04-01T11:54:42.449Z,99557.91
2023-04-01T11:57:46.834Z,99571.06
2023-04-01T12:00:52.636Z,99558.97
2023-04-01T12:04:24.478Z,99560.19
2023-04-01T12:08:03.243Z,99552.34
2023-04-01T12:11:25.155Z,99563.81
2023-04-01T12:14:37.669Z,99557.09
2023-04-01T12:18:01.045Z,99555.00
2023-04-01T12:21:12.700Z,99561.69
2023-04-01T12:24:36.688Z,99547.94
2023-04-01T12:27:56.192Z,99552.53
2023-04-01T12:31:24.435Z,99556.13
2023-04-01T12:35:19.491Z,99551.88
2023-04-01T12:38:43.443Z,99548.13
2023-04-01T12:42:23.757Z,99546.78
2023-04-01T12:45:33.677Z,99551.09
2023-04-01T12:49:18.640Z,99546.06
2023-04-01T12:52:49.476Z,99551.09
2023-04-01T12:55:53.958Z,99541.47
2023-04-01T12:59:35.121Z,99539.91
2023-04-01T13:03:06.331Z,99541.41
2023-04-01T13:06:26.750Z,99545.09
2023-04-01T13:10:08.059Z,99540.66
2023-04-01T13:13:41.712Z,99545.25
2023-04-01T13:16:55.517Z,99538.94
2023-04-01T13:20:10.828Z,99540.41
2023-04-01T13:23:22.709Z,99545.78
2023-04-01T13:26:46.145Z,99538.84
2023-04-01T13:30:21.379Z,99547.09
2023-04-01T13:33:33.713Z,99543.28
2023-04-01T13:36:46.208Z,99545.72
2023-04-01T13:40:46.756Z,99548.19
2023-04-01T13:44:10.769Z,99540.91
2023-04-01T13:47:26.965Z,99544.09
2023-04-01T13:50:59.735Z,99544.78
2023-04-01T13:54:11.499Z,99538.31
2023-04-01T13:57:36.308Z,99536.94
2023-04-01T14:00:54.645Z,99529.50
2023-04-01T14:04:31.728Z,99529.41
2023-04-01T14:07:46.649Z,99531.34
2023-04-01T14:11:20.407Z,99533.50
2023-04-01T14:14:47.754Z,99522.53
2023-04-01T14:18:17.431Z,99528.16
2023-04-01T14:21:29.062Z,99535.06
2023-04-01T14:24:54.318Z,99531.34
2023-04-01T14:28:13.552Z,99529.75
2023-04-01T14:31:28.603Z,99527.81
2023-04-01T14:34:43.530Z,99528.06
2023-04-01T14:38:27.405Z,99524.88
2023-04-01T14:41:54.869Z,99539.31
2023-04-01T14:45:04.165Z,99547.88
2023-04-01T14:48:28.806Z,99540.25
2023-04-01T14:51:38.726Z,99506.78
2023-04-01T14:54:45.466Z,99525.47
2023-04-01T14:58:22.972Z,99542.56
2023-04-01T15:01:52.042Z,99547.63
2023-04-01T15:05:36.765Z,99560.69
2023-04-01T15:08:59.464Z,99566.50
2023-04-01T15:12:02.357Z,99564.06
2023-04-01T15:15:23.990Z,99572.69
2023-04-01T15:18:42.411Z,99575.63
2023-04-01T15:21:45.136Z,99581.50
2023-04-01T15:24:54.007Z,99582.38
2023-04-01T15:27:56.875Z,99589.78
2023-04-01T15:31:59.186Z,99583.19
2023-04-01T15:35:07.977Z,99575.84
2023-04-01T15:38:35.484Z,99574.97
2023-04-01T15:41:41.629Z,99579.75
2023-04-01T15:45:02.329Z,99579.66
2023-04-01T15:48:32.774Z,99573.53
2023-04-01T15:51:51.007Z,99582.78
2023-04-01T15:55:05.628Z,99573.66
2023-04-01T15:58:32.164Z,99582.53
2023-04-01T16:01:56.237Z,99585.66
2023-04-01T16:05:34.705Z,99591.09
2023-04-01T16:09:02.480Z,99596.75
2023-04-01T16:12:17.815Z,99599.63
2023-04-01T16:15:29.784Z,99603.00
2023-04-01T16:18:49.985Z,99598.47
2023-04-01T16:22:06.562Z,99611.84
2023-04-01T16:25:37.731Z,99614.97
2023-04-01T16:29:05.515Z,99616.94
2023-04-01T16:32:47.098Z,99613.81
2023-04-01T16:36:10.096Z,99612.66
2023-04-01T16:39:42.046Z,99615.53
2023-04-01T16:43:06.962Z,99616.47
2023-04-01T16:46:34.230Z,99638.84
2023-04-01T16:49:55.148Z,99641.13
2023-04-01T16:53:01.965Z,99636.66
2023-04-01T16:56:16.914Z,99639.19
2023-04-01T16:59:39.846Z,99642.41
2023-04-01T17:02:52.035Z,99637.81
2023-04-01T17:06:07.504Z,99645.41
2023-04-01T17:09:38.686Z,99647.00
2023-04-01T17:13:02.933Z,99646.75
2023-04-01T17:16:09.060Z,99648.91
2023-04-01T17:19:59.311Z,99656.72
2023-04-01T17:23:28.516Z,99660.75
2023-04-01T17:27:03.238Z,99654.72
2023-04-01T17:30:16.917Z,99654.56
2023-04-01T17:33:26.036Z,99661.47
2023-04-01T17:36:49.806Z,99668.63
2023-04-01T17:40:06.100Z,99662.59
2023-04-01T17:43:24.246Z,99675.19
2023-04-01T17:47:02.684Z,99679.25
2023-04-01T17:50:37.577Z,99685.84
2023-04-01T17:53:59.025Z,99685.91
2023-04-01T17:57:30.730Z,99687.66
2023-04-01T18:00:53.818Z,99694.38
2023-04-01T18:04:32.965Z,99696.69
2023-04-01T18:07:54.088Z,99706.72
2023-04-01T18:11:03.263Z,99703.34
2023-04-01T18:14:28.077Z,99697.91
2023-04-01T18:17:42.651Z,99697.16
2023-04-01T18:20:59.169Z,99703.34
2023-04-01T18:24:34.670Z,99702.59
2023-04-01T18:28:23.647Z,99704.28
2023-04-01T18:31:36.918Z,99707.75
2023-04-01T18:34:45.758Z,99714.34
2023-04-01T18:38:17.645Z,99715.81
2023-04-01T18:41:24.272Z,99724.22
2023-04-01T18:44:43.253Z,99728.53
2023-04-01T18:48:10.179Z,99725.06
2023-04-01T18:51:16.171Z,99731.97
2023-04-01T18:54:31.737Z,99734.63
2023-04-01T18:57:54.281Z,99735.81
2023-04-01T19:01:06.259Z,99745.38
2023-04-01T19:04:31.907Z,99746.03
2023-04-01T19:07:37.796Z,99754.25
2023-04-01T19:11:12.854Z,99755.69
2023-04-01T19:14:30.538Z,99758.31
2023-04-01T19:17:45.853Z,99764.00
2023-04-01T19:20:58.486Z,99761.34
2023-04-01T19:24:46.709Z,99763.00
2023-04-01T19:28:17.597Z,99762.19
2023-04-01T19:31:26.821Z,99765.81
2023-04-01T19:34:58.569Z,99764.00
2023-04-01T19:38:08.913Z,99767.06
2023-04-01T19:41:11.944Z,99769.50
2023-04-01T19:44:21.044Z,99767.88
2023-04-01T19:47:51.679Z,99766.25
2023-04-01T19:51:02.091Z,99776.59
2023-04-01T19:54:14.256Z,99776.22
2023-04-01T19:57:23.488Z,99771.34
2023-04-01T20:00:36.189Z,99776.81
2023-04-01T20:03:55.364Z,99777.81
2023-04-01T20:07:05.654Z,99767.50
2023-04-01T20:10:23.604Z,99778.66
2023-04-01T20:13:33.532Z,99770.53
2023-04-01T20:16:54.692Z,99768.72
2023-04-01T20:20:09.946Z,99769.94
2023-04-01T20:23:12.979Z,99780.06
2023-04-01T20:26:31.448Z,99770.31
2023-04-01T20:30:07.015Z,99776.81
2023-04-01T20:33:46.914Z,99772.94
2023-04-01T20:36:53.162Z,99772.72
2023-04-01T20:40:36.459Z,99773.94
2023-04-01T20:43:51.526Z,99775.78
2023-04-01T20:47:08.515Z,99790.75
2023-04-01T20:50:34.489Z,99784.47
2023-04-01T20:53:45.164Z,99783.47
2023-04-01T20:57:06.505Z,99781.22
2023-04-01T21:00:31.489Z,99795.78
2023-04-01T21:03:48.505Z,99802.88
2023-04-01T21:07:32.716Z,99797.56
2023-04-01T21:10:44.889Z,99797.91
2023-04-01T21:14:12.859Z,99794.25
2023-04-01T21:17:51.188Z,99803.13
2023-04-01T21:21:21.657Z,99810.44
2023-04-01T21:24:45.763Z,99808.41
2023-04-01T21:28:03.855Z,99806.78
2023-04-01T21:31:28.472Z,99814.88
2023-04-01T21:34:44.709Z,99814.03
2023-04-01T21:37:53.445Z,99809.53
2023-04-01T21:41:19.752Z,99818.63
2023-04-01T21:44:40.112Z,99815.72
2023-04-01T21:48:01.841Z,99820.78
2023-04-01T21:51:15.585Z,99830.53
2023-04-01T21:54:40.052Z,99832.13
2023-04-01T21:57:52.055Z,99832.75
2023-04-01T22:01:32.354Z,99830.00
2023-04-01T22:04:54.414Z,99830.56
2023-04-01T22:08:01.524Z,99832.38
2023-04-01T22:11:37.803Z,99841.56
2023-04-01T22:14:43.066Z,99839.91
2023-04-01T22:18:04.363Z,99839.47
2023-04-01T22:21:17.686Z,99838.66
2023-04-01T22:24:43.045Z,99833.41
2023-04-01T22:28:04.566Z,99828.56
2023-04-01T22:31:11.636Z,99830.38
2023-04-01T22:34:25.861Z,99832.44
2023-04-01T22:37:50.328Z,99840.00
2023-04-01T22:40:59.116Z,99844.16
2023-04-01T22:44:02.171Z,99844.81
2023-04-01T22:47:40.383Z,99843.06
2023-04-01T22:51:07.225Z,99841.28
2023-04-01T22:54:28.944Z,99840.06
2023-04-01T22:57:31.824Z,99842.53
2023-04-01T23:00:41.999Z,99846.38
2023-04-01T23:03:50.541Z,99844.97
2023-04-01T23:06:59.120Z,99856.50
2023-04-01T23:10:03.870Z,99852.63
2023-04-01T23:13:11.785Z,99862.16
2023-04-01T23:16:14.952Z,99855.84
2023-04-01T23:19:39.469Z,99867.50
2023-04-01T23:22:58.511Z,99854.75
2023-04-01T23:26:27.536Z,99867.38
2023-04-01T23:29:30.761Z,99872.50
2023-04-01T23:32:33.581Z,99879.09
2023-04-01T23:35:51.424Z,99877.53
2023-04-01T23:38:55.399Z,99876.41
2023-04-01T23:42:06.417Z,99877.19
2023-04-01T23:45:18.612Z,99881.56
2023-04-01T23:48:30.303Z,99883.38
2023-04-01T23:51:50.205Z,99873.69
2023-04-01T23:54:55.028Z,99877.72
2023-04-01T23:58:06.992Z,99878.47
